Time;durP1;ratioP1;P1;durP2;ratioP2;P2;SDS_P1;SDS_P2;PMS_P1;PMS_P2;Temp;Humidity;BMP_temperature;BMP_pressure;BME280_temperature;BME280_humidity;BME280_pressure;Samples;Min_cycle;Max_cycle;Signal;HPM_P1;HPM_P2
2024/03/22 00:01:51;;;;;;;;;;;;;;;9.98;82.34;96797.25;108694;1280;22508;-87
2024/03/22 00:04:18;;;;;;;;;;;;;;;9.99;82.57;96796.42;108489;1281;124947;-87
2024/03/22 00:06:45;;;;;;;;;;;;;;;9.97;83.18;96796.27;108602;1280;22508;-87
2024/03/22 00:09:11;;;;;;;;;;;;;;;9.96;83.27;96798.97;108509;1281;124606;-87
2024/03/22 00:11:41;;;;;;;;;;;;;;;9.97;83.37;96799.77;108639;1276;22513;-87
2024/03/22 00:14:07;;;;;;;;;;;;;;;9.98;83.67;96800.01;108587;1280;125224;-88
2024/03/22 00:16:34;;;;;;;;;;;;;;;9.98;83.97;96796.73;108613;1281;22533;-87
2024/03/22 00:19:00;;;;;;;;;;;;;;;9.97;84.29;96797.19;108562;1280;22535;-87
2024/03/22 00:21:26;;;;;;;;;;;;;;;9.96;84.73;96796.77;108523;1281;124747;-87
2024/03/22 00:23:52;;;;;;;;;;;;;;;9.96;84.55;96796.54;108670;1279;22474;-87
2024/03/22 00:26:19;;;;;;;;;;;;;;;9.98;84.90;96792.64;108498;1280;124751;-87
2024/03/22 00:28:46;;;;;;;;;;;;;;;9.97;85.39;96794.88;108630;1280;24236;-87
2024/03/22 00:31:12;;;;;;;;;;;;;;;9.98;85.49;96789.42;108653;1280;24152;-87
2024/03/22 00:33:38;;;;;;;;;;;;;;;9.99;85.69;96785.91;108541;1280;124670;-87
2024/03/22 00:36:05;;;;;;;;;;;;;;;10.00;85.89;96782.66;108678;1276;23826;-87
2024/03/22 00:38:31;;;;;;;;;;;;;;;10.00;86.19;96786.75;108543;1281;125662;-87
2024/03/22 00:40:58;;;;;;;;;;;;;;;9.99;86.86;96787.05;108600;1281;22481;-87
2024/03/22 00:43:24;;;;;;;;;;;;;;;9.96;87.24;96787.94;108577;1280;22513;-87
2024/03/22 00:45:50;;;;;;;;;;;;;;;9.95;87.42;96785.45;108505;1281;124694;-87
2024/03/22 00:48:18;;;;;;;;;;;;;;;9.95;87.81;96785.80;108590;1271;22633;-87
2024/03/22 00:50:44;;;;;;;;;;;;;;;9.94;88.44;96787.98;108514;1278;124768;-88
2024/03/22 00:53:11;;;;;;;;;;;;;;;9.92;88.40;96786.98;108643;1280;22519;-87
2024/03/22 00:55:37;;;;;;;;;;;;;;;9.91;88.85;96785.69;108624;1279;22532;-87
2024/03/22 00:58:04;;;;;;;;;;;;;;;9.90;88.92;96785.44;108582;1279;124979;-88
2024/03/22 01:00:30;;;;;;;;;;;;;;;9.90;89.10;96787.27;108620;1273;24309;-87
2024/03/22 01:02:56;;;;;;;;;;;;;;;9.91;88.85;96783.61;108507;1274;124921;-88
2024/03/22 01:05:22;;;;;;;;;;;;;;;9.92;89.28;96783.83;108709;1280;22506;-88
2024/03/22 01:07:49;;;;;;;;;;;;;;;9.92;89.21;96783.86;108613;1280;23984;-87
2024/03/22 01:10:15;;;;;;;;;;;;;;;9.92;89.37;96785.38;108511;1281;124613;-88
2024/03/22 01:12:42;;;;;;;;;;;;;;;9.93;89.53;96785.81;108670;1275;24207;-87
2024/03/22 01:15:09;;;;;;;;;;;;;;;9.93;89.76;96787.08;108501;1279;125099;-87
2024/03/22 01:17:35;;;;;;;;;;;;;;;9.92;89.77;96786.39;108703;1280;22469;-88
2024/03/22 01:20:02;;;;;;;;;;;;;;;9.91;89.87;96786.52;108671;1273;25387;-88
2024/03/22 01:22:28;;;;;;;;;;;;;;;9.91;90.14;96785.02;108668;1262;124402;-88
2024/03/22 01:24:54;;;;;;;;;;;;;;;9.89;90.41;96784.67;108692;1280;22514;-86
2024/03/22 01:27:21;;;;;;;;;;;;;;;9.88;90.68;96783.89;108557;1280;124706;-87
2024/03/22 01:29:48;;;;;;;;;;;;;;;9.87;91.09;96783.73;108701;1273;22794;-87
2024/03/22 01:32:14;;;;;;;;;;;;;;;9.85;91.38;96781.18;108681;1280;125198;-87
2024/03/22 01:34:40;;;;;;;;;;;;;;;9.85;91.35;96782.55;108717;1279;25336;-87
2024/03/22 01:37:07;;;;;;;;;;;;;;;9.85;91.64;96778.16;108686;1280;23360;-87
2024/03/22 01:39:33;;;;;;;;;;;;;;;9.85;91.92;96779.46;108620;1280;124609;-87
2024/03/22 01:41:59;;;;;;;;;;;;;;;9.83;92.17;96774.61;108758;1280;25272;-88
2024/03/22 01:44:29;;;;;;;;;;;;;;;9.82;92.40;96774.02;108556;1280;124652;-87
2024/03/22 01:46:55;;;;;;;;;;;;;;;9.82;92.71;96773.73;108699;1280;25173;-87
2024/03/22 01:49:22;;;;;;;;;;;;;;;9.80;92.69;96767.85;108699;1280;23105;-87
2024/03/22 01:51:48;;;;;;;;;;;;;;;9.79;93.01;96770.61;108529;1280;124577;-87
2024/03/22 01:54:14;;;;;;;;;;;;;;;9.79;93.21;96766.65;108636;1274;23246;-87
2024/03/22 01:56:40;;;;;;;;;;;;;;;9.78;93.43;96766.91;108538;1273;124726;-87
2024/03/22 01:59:07;;;;;;;;;;;;;;;9.75;93.77;96765.77;108677;1280;22491;-87
2024/03/22 02:01:33;;;;;;;;;;;;;;;9.74;93.96;96764.14;108752;1280;24392;-88
2024/03/22 02:03:59;;;;;;;;;;;;;;;9.72;94.13;96764.61;108621;1272;124575;-87
2024/03/22 02:06:26;;;;;;;;;;;;;;;9.71;94.45;96765.39;108758;1279;22628;-87
2024/03/22 02:08:52;;;;;;;;;;;;;;;9.69;94.51;96762.67;108632;1280;125217;-87
2024/03/22 02:11:18;;;;;;;;;;;;;;;9.70;94.80;96764.16;108699;1281;23255;-87
2024/03/22 02:13:44;;;;;;;;;;;;;;;9.68;95.17;96765.02;108656;1281;24238;-87
2024/03/22 02:16:11;;;;;;;;;;;;;;;9.67;95.20;96768.95;108574;1280;125133;-87
2024/03/22 02:18:37;;;;;;;;;;;;;;;9.66;95.75;96770.48;108665;1280;23782;-88
2024/03/22 02:21:03;;;;;;;;;;;;;;;9.64;95.80;96773.95;108618;1280;124958;-87
2024/03/22 02:23:36;;;;;;;;;;;;;;;9.61;95.96;96774.19;108672;1280;24207;-87
2024/03/22 02:26:03;;;;;;;;;;;;;;;9.60;96.26;96775.59;108659;1281;24204;-88
2024/03/22 02:28:31;;;;;;;;;;;;;;;9.59;96.45;96771.90;109897;1277;124418;-85
2024/03/22 02:31:01;;;;;;;;;;;;;;;9.60;96.56;96771.88;110044;1280;23168;-85
2024/03/22 02:33:27;;;;;;;;;;;;;;;9.61;96.68;96772.13;109954;1269;124511;-85
2024/03/22 02:35:53;;;;;;;;;;;;;;;9.62;96.95;96767.25;110003;1273;23259;-84
2024/03/22 02:38:20;;;;;;;;;;;;;;;9.60;97.03;96769.34;109913;1279;124731;-84
2024/03/22 02:40:47;;;;;;;;;;;;;;;9.60;97.25;96768.80;110044;1273;22417;-85
2024/03/22 02:43:13;;;;;;;;;;;;;;;9.59;97.26;96768.02;109898;1281;25224;-84
2024/03/22 02:45:40;;;;;;;;;;;;;;;9.61;97.40;96772.05;108675;1269;126594;-84
2024/03/22 02:48:06;;;;;;;;;;;;;;;9.61;97.51;96769.94;108680;1280;22494;-87
2024/03/22 02:50:33;;;;;;;;;;;;;;;9.60;98.01;96770.72;108563;1275;124835;-86
2024/03/22 02:52:59;;;;;;;;;;;;;;;9.57;98.08;96774.63;108649;1277;22557;-86
2024/03/22 02:55:25;;;;;;;;;;;;;;;9.55;98.21;96774.18;108653;1277;22454;-86
2024/03/22 02:57:52;;;;;;;;;;;;;;;9.54;98.46;96772.40;108549;1275;124620;-86
2024/03/22 03:00:18;;;;;;;;;;;;;;;9.52;98.73;96772.80;108654;1267;24194;-87
2024/03/22 03:02:47;;;;;;;;;;;;;;;9.49;98.74;96769.64;108479;1278;125149;-86
2024/03/22 03:05:13;;;;;;;;;;;;;;;9.49;99.05;96769.15;108667;1280;22569;-86
2024/03/22 03:07:40;;;;;;;;;;;;;;;9.48;99.24;96765.46;108643;1273;22541;-87
2024/03/22 03:10:07;;;;;;;;;;;;;;;9.48;99.27;96759.75;108539;1280;125022;-86
2024/03/22 03:12:33;;;;;;;;;;;;;;;9.48;99.34;96764.10;108631;1270;23618;-86
2024/03/22 03:14:59;;;;;;;;;;;;;;;9.47;99.38;96759.70;108562;1280;124919;-86
2024/03/22 03:17:25;;;;;;;;;;;;;;;9.46;99.59;96759.27;108607;1280;24450;-87
2024/03/22 03:19:52;;;;;;;;;;;;;;;9.46;99.66;96756.71;108567;1279;22565;-86
2024/03/22 03:22:18;;;;;;;;;;;;;;;9.46;99.77;96758.23;108578;1280;124811;-86
2024/03/22 03:24:44;;;;;;;;;;;;;;;9.46;99.85;96757.63;108627;1277;22510;-86
2024/03/22 03:27:11;;;;;;;;;;;;;;;9.44;100.00;96756.91;108568;1280;124552;-86
2024/03/22 03:29:37;;;;;;;;;;;;;;;9.41;100.00;96751.55;108633;1280;22923;-86
2024/03/22 03:32:03;;;;;;;;;;;;;;;9.40;100.00;96753.72;108661;1281;22507;-86
2024/03/22 03:34:30;;;;;;;;;;;;;;;9.40;100.00;96755.45;108646;1281;22516;-86
2024/03/22 03:37:00;;;;;;;;;;;;;;;9.41;100.00;96757.89;108636;1280;22577;-87
2024/03/22 03:39:27;;;;;;;;;;;;;;;9.42;100.00;96751.45;108587;1281;124705;-86
2024/03/22 03:41:53;;;;;;;;;;;;;;;9.40;100.00;96753.30;108618;1275;24194;-86
2024/03/22 03:44:19;;;;;;;;;;;;;;;9.37;100.00;96751.59;108597;1273;124896;-86
2024/03/22 03:46:45;;;;;;;;;;;;;;;9.35;100.00;96743.72;108625;1274;22507;-86
2024/03/22 03:49:12;;;;;;;;;;;;;;;9.34;100.00;96740.55;108586;1281;22502;-86
2024/03/22 03:51:38;;;;;;;;;;;;;;;9.32;100.00;96739.84;108561;1279;124921;-86
2024/03/22 03:54:04;;;;;;;;;;;;;;;9.31;100.00;96741.73;108691;1279;24174;-87
2024/03/22 03:56:31;;;;;;;;;;;;;;;9.29;100.00;96737.22;108492;1279;124904;-86
2024/03/22 03:58:57;;;;;;;;;;;;;;;9.28;100.00;96737.55;108677;1280;25384;-86
2024/03/22 04:01:24;;;;;;;;;;;;;;;9.26;100.00;96737.95;108743;1279;22597;-87
2024/03/22 04:03:50;;;;;;;;;;;;;;;9.25;100.00;96737.66;108640;1274;124982;-86
2024/03/22 04:06:16;;;;;;;;;;;;;;;9.22;100.00;96738.69;108706;1280;22599;-86
2024/03/22 04:08:43;;;;;;;;;;;;;;;9.21;100.00;96737.66;108573;1280;125102;-86
2024/03/22 04:11:10;;;;;;;;;;;;;;;9.20;100.00;96738.40;108669;1280;24787;-87
2024/03/22 04:13:36;;;;;;;;;;;;;;;9.19;100.00;96738.02;108636;1277;22543;-86
2024/03/22 04:16:02;;;;;;;;;;;;;;;9.18;100.00;96735.65;108546;1281;124869;-86
2024/03/22 04:18:29;;;;;;;;;;;;;;;9.18;100.00;96734.80;108639;1280;22473;-86
2024/03/22 04:20:56;;;;;;;;;;;;;;;9.18;100.00;96741.06;108552;1278;124651;-87
2024/03/22 04:23:22;;;;;;;;;;;;;;;9.17;100.00;96735.94;108688;1274;23269;-86
2024/03/22 04:25:55;;;;;;;;;;;;;;;9.17;100.00;96734.09;108751;1280;22624;-86
2024/03/22 04:28:22;;;;;;;;;;;;;;;9.15;100.00;96735.46;108459;1274;124753;-86
2024/03/22 04:30:55;;;;;;;;;;;;;;;9.14;100.00;96733.17;108645;1280;22661;-86
2024/03/22 04:33:21;;;;;;;;;;;;;;;9.15;100.00;96731.90;108544;1280;124808;-86
2024/03/22 04:35:47;;;;;;;;;;;;;;;9.15;100.00;96735.79;108590;1277;22604;-86
2024/03/22 04:38:14;;;;;;;;;;;;;;;9.15;100.00;96728.76;108483;1281;125295;-86
2024/03/22 04:40:40;;;;;;;;;;;;;;;9.14;100.00;96729.57;108640;1280;22567;-86
2024/03/22 04:43:07;;;;;;;;;;;;;;;9.12;100.00;96726.86;108640;1277;22616;-87
2024/03/22 04:45:33;;;;;;;;;;;;;;;9.12;100.00;96726.79;108546;1273;124666;-86
2024/03/22 04:48:03;;;;;;;;;;;;;;;9.12;100.00;96728.19;108604;1281;22645;-86
2024/03/22 04:50:30;;;;;;;;;;;;;;;9.10;100.00;96727.35;108509;1280;125475;-86
2024/03/22 04:52:56;;;;;;;;;;;;;;;9.09;100.00;96726.08;108730;1280;24352;-86
2024/03/22 04:55:23;;;;;;;;;;;;;;;9.08;100.00;96728.29;108662;1279;22547;-86
2024/03/22 04:57:49;;;;;;;;;;;;;;;9.07;100.00;96729.06;108526;1280;124943;-86
2024/03/22 05:00:16;;;;;;;;;;;;;;;9.08;100.00;96722.91;108611;1280;22577;-86
2024/03/22 05:02:42;;;;;;;;;;;;;;;9.06;100.00;96723.50;108541;1279;125032;-87
2024/03/22 05:05:08;;;;;;;;;;;;;;;9.02;100.00;96729.25;108662;1280;22520;-85
2024/03/22 05:07:34;;;;;;;;;;;;;;;9.02;100.00;96731.70;108624;1280;25380;-86
2024/03/22 05:10:01;;;;;;;;;;;;;;;9.02;100.00;96731.35;108617;1279;124776;-86
2024/03/22 05:12:27;;;;;;;;;;;;;;;9.04;100.00;96735.30;108718;1280;24062;-86
2024/03/22 05:14:53;;;;;;;;;;;;;;;9.08;100.00;96734.19;108606;1280;124666;-87
2024/03/22 05:17:20;;;;;;;;;;;;;;;9.08;100.00;96735.16;108629;1280;22485;-87
2024/03/22 05:19:46;;;;;;;;;;;;;;;9.06;100.00;96740.41;108687;1279;23981;-86
2024/03/22 05:22:13;;;;;;;;;;;;;;;9.03;100.00;96740.06;108518;1273;125028;-85
2024/03/22 05:24:40;;;;;;;;;;;;;;;9.03;100.00;96740.23;108625;1279;23059;-86
2024/03/22 05:27:07;;;;;;;;;;;;;;;9.04;100.00;96735.14;108575;1280;124719;-86
2024/03/22 05:29:33;;;;;;;;;;;;;;;9.05;100.00;96740.03;108661;1280;22516;-86
2024/03/22 05:32:00;;;;;;;;;;;;;;;9.04;100.00;96736.30;108609;1276;22555;-86
2024/03/22 05:34:26;;;;;;;;;;;;;;;9.05;100.00;96734.52;108502;1280;124576;-86
2024/03/22 05:36:54;;;;;;;;;;;;;;;9.05;100.00;96739.64;108664;1273;22562;-86
2024/03/22 05:39:20;;;;;;;;;;;;;;;9.05;100.00;96736.89;108568;1278;124725;-87
2024/03/22 05:41:46;;;;;;;;;;;;;;;9.06;100.00;96734.75;108621;1276;22601;-87
2024/03/22 05:44:13;;;;;;;;;;;;;;;9.08;100.00;96730.59;108564;1280;125019;-86
2024/03/22 05:46:39;;;;;;;;;;;;;;;9.06;100.00;96732.64;108648;1275;22527;-86
2024/03/22 05:49:06;;;;;;;;;;;;;;;9.08;100.00;96730.59;108648;1280;22503;-86
2024/03/22 05:51:32;;;;;;;;;;;;;;;9.08;100.00;96735.71;108538;1275;124641;-86
2024/03/22 05:53:58;;;;;;;;;;;;;;;9.10;100.00;96736.23;108643;1278;22663;-84
2024/03/22 05:56:25;;;;;;;;;;;;;;;9.13;100.00;96741.30;108526;1277;124806;-84
2024/03/22 05:58:51;;;;;;;;;;;;;;;9.13;100.00;96743.15;108660;1267;22652;-84
2024/03/22 06:01:17;;;;;;;;;;;;;;;9.12;100.00;96741.39;108639;1280;22993;-84
2024/03/22 06:03:44;;;;;;;;;;;;;;;9.10;100.00;96744.88;108552;1276;124673;-84
2024/03/22 06:06:10;;;;;;;;;;;;;;;9.06;100.00;96743.73;108663;1275;22723;-84
2024/03/22 06:08:39;;;;;;;;;;;;;;;9.03;100.00;96740.23;108602;1280;124896;-84
2024/03/22 06:11:07;;;;;;;;;;;;;;;9.02;100.00;96738.45;108632;1275;22474;-85
2024/03/22 06:13:33;;;;;;;;;;;;;;;9.01;100.00;96739.00;109578;1280;22506;-84
2024/03/22 06:15:59;;;;;;;;;;;;;;;9.03;100.00;96736.40;108553;1275;124647;-84
2024/03/22 06:18:25;;;;;;;;;;;;;;;9.04;100.00;96728.23;108676;1280;24286;-84
2024/03/22 06:20:54;;;;;;;;;;;;;;;9.03;100.00;96729.80;108565;1280;124715;-84
2024/03/22 06:23:21;;;;;;;;;;;;;;;9.03;100.00;96728.98;108678;1275;23275;-84
2024/03/22 06:25:51;;;;;;;;;;;;;;;8.98;100.00;96728.16;108715;1273;25377;-84
2024/03/22 06:28:17;;;;;;;;;;;;;;;8.95;100.00;96726.70;108572;1273;125040;-84
2024/03/22 06:30:44;;;;;;;;;;;;;;;8.94;100.00;96725.09;108601;1273;22506;-84
2024/03/22 06:33:11;;;;;;;;;;;;;;;8.93;100.00;96719.36;108549;1280;124705;-84
2024/03/22 06:35:37;;;;;;;;;;;;;;;8.92;100.00;96720.76;108634;1280;23347;-84
2024/03/22 06:38:04;;;;;;;;;;;;;;;8.92;100.00;96723.96;108656;1280;22519;-84
2024/03/22 06:40:30;;;;;;;;;;;;;;;8.89;100.00;96720.79;108576;1281;23891;-84
2024/03/22 06:42:56;;;;;;;;;;;;;;;8.88;100.00;96717.77;108590;1280;23706;-84
2024/03/22 06:45:23;;;;;;;;;;;;;;;8.87;100.00;96717.63;108583;1276;124703;-84
2024/03/22 06:47:49;;;;;;;;;;;;;;;8.85;100.00;96722.13;108740;1280;22499;-83
2024/03/22 06:50:17;;;;;;;;;;;;;;;8.83;100.00;96722.46;108569;1274;124835;-84
2024/03/22 06:52:44;;;;;;;;;;;;;;;8.80;100.00;96729.16;108645;1270;23771;-84
2024/03/22 06:55:10;;;;;;;;;;;;;;;8.77;100.00;96725.41;108679;1281;23038;-87
2024/03/22 06:57:37;;;;;;;;;;;;;;;8.72;100.00;96726.88;108603;1273;124653;-86
2024/03/22 07:00:04;;;;;;;;;;;;;;;8.70;100.00;96732.55;108657;1281;22590;-86
2024/03/22 07:02:30;;;;;;;;;;;;;;;8.67;100.00;96736.31;108611;1278;124995;-86
2024/03/22 07:04:56;;;;;;;;;;;;;;;8.65;100.00;96739.62;108582;1281;22536;-86
2024/03/22 07:07:23;;;;;;;;;;;;;;;8.64;100.00;96735.45;108650;1280;25373;-84
2024/03/22 07:09:49;;;;;;;;;;;;;;;8.62;100.00;96737.69;108544;1275;124671;-84
2024/03/22 07:12:15;;;;;;;;;;;;;;;8.60;100.00;96747.68;108658;1280;22534;-84
2024/03/22 07:14:41;;;;;;;;;;;;;;;8.59;100.00;96747.10;108589;1274;124724;-84
2024/03/22 07:17:08;;;;;;;;;;;;;;;8.60;100.00;96745.79;108640;1267;22506;-84
2024/03/22 07:19:34;;;;;;;;;;;;;;;8.60;100.00;96743.73;108596;1281;22632;-84
2024/03/22 07:22:02;;;;;;;;;;;;;;;8.60;100.00;96738.79;109886;1272;124762;-85
2024/03/22 07:24:28;;;;;;;;;;;;;;;8.63;100.00;96741.91;110016;1278;22388;-84
2024/03/22 07:26:54;;;;;;;;;;;;;;;8.66;100.00;96738.65;109941;1278;124702;-84
2024/03/22 07:29:21;;;;;;;;;;;;;;;8.67;100.00;96742.80;109067;1273;22520;-84
2024/03/22 07:31:47;;;;;;;;;;;;;;;8.67;100.00;96736.09;108685;1273;22491;-84
2024/03/22 07:34:14;;;;;;;;;;;;;;;8.66;100.00;96736.25;108558;1276;124713;-84
2024/03/22 07:36:40;;;;;;;;;;;;;;;8.66;100.00;96735.66;108752;1276;22495;-84
2024/03/22 07:39:07;;;;;;;;;;;;;;;8.68;100.00;96737.58;108551;1275;124604;-84
2024/03/22 07:41:33;;;;;;;;;;;;;;;8.67;100.00;96738.36;108659;1280;24275;-84
2024/03/22 07:44:00;;;;;;;;;;;;;;;8.66;100.00;96736.02;108637;1280;23624;-84
2024/03/22 07:46:26;;;;;;;;;;;;;;;8.67;100.00;96732.17;108537;1275;125282;-84
2024/03/22 07:48:52;;;;;;;;;;;;;;;8.71;100.00;96733.82;108670;1280;22465;-84
2024/03/22 07:51:19;;;;;;;;;;;;;;;8.72;100.00;96734.52;108503;1273;124701;-84
2024/03/22 07:53:45;;;;;;;;;;;;;;;8.73;100.00;96728.05;108557;1280;22527;-83
2024/03/22 07:56:12;;;;;;;;;;;;;;;8.74;100.00;96724.29;108500;1278;124798;-84
2024/03/22 07:58:38;;;;;;;;;;;;;;;8.73;100.00;96721.09;108671;1280;22540;-84
2024/03/22 08:01:05;;;;;;;;;;;;;;;8.73;100.00;96713.64;108693;1275;23265;-84
2024/03/22 08:03:31;;;;;;;;;;;;;;;8.76;100.00;96710.98;108541;1275;124624;-84
2024/03/22 08:05:58;;;;;;;;;;;;;;;8.80;100.00;96710.95;108665;1280;24245;-84
2024/03/22 08:08:25;;;;;;;;;;;;;;;8.81;100.00;96714.08;108490;1280;124898;-84
2024/03/22 08:10:51;;;;;;;;;;;;;;;8.81;100.00;96709.73;108674;1273;22465;-84
2024/03/22 08:13:18;;;;;;;;;;;;;;;8.83;100.00;96711.32;108641;1280;22480;-84
2024/03/22 08:15:45;;;;;;;;;;;;;;;8.84;100.00;96710.99;108561;1280;124650;-84
2024/03/22 08:18:12;;;;;;;;;;;;;;;8.84;100.00;96707.23;108681;1273;22496;-84
2024/03/22 08:20:38;;;;;;;;;;;;;;;8.82;100.00;96710.99;108604;1280;124747;-84
2024/03/22 08:23:05;;;;;;;;;;;;;;;8.81;100.00;96706.83;108611;1270;22538;-84
2024/03/22 08:25:32;;;;;;;;;;;;;;;8.80;100.00;96706.91;108651;1280;22579;-84
2024/03/22 08:27:58;;;;;;;;;;;;;;;8.81;100.00;96700.64;108541;1273;124585;-84
2024/03/22 08:30:25;;;;;;;;;;;;;;;8.81;100.00;96703.19;108671;1273;22532;-84
2024/03/22 08:32:52;;;;;;;;;;;;;;;8.81;100.00;96700.98;108591;1280;124804;-83
2024/03/22 08:35:18;;;;;;;;;;;;;;;8.81;100.00;96700.11;108656;1275;22579;-84
2024/03/22 08:37:49;;;;;;;;;;;;;;;8.82;100.00;96697.91;108516;1280;125569;-84
2024/03/22 08:40:15;;;;;;;;;;;;;;;8.82;100.00;96693.98;108679;1279;22624;-84
2024/03/22 08:42:42;;;;;;;;;;;;;;;8.83;100.00;96694.70;108642;1270;22566;-84
2024/03/22 08:45:08;;;;;;;;;;;;;;;8.85;100.00;96704.99;108609;1280;124757;-84
2024/03/22 08:47:36;;;;;;;;;;;;;;;8.86;100.00;96707.16;108797;1279;22469;-84
2024/03/22 08:50:02;;;;;;;;;;;;;;;8.86;100.00;96706.65;108511;1275;124890;-84
2024/03/22 08:52:30;;;;;;;;;;;;;;;8.86;100.00;96705.77;108711;1280;22499;-85
2024/03/22 08:54:56;;;;;;;;;;;;;;;8.84;100.00;96703.41;108726;1279;25409;-84
2024/03/22 08:57:22;;;;;;;;;;;;;;;8.80;100.00;96704.14;108566;1273;124533;-84
2024/03/22 08:59:48;;;;;;;;;;;;;;;8.79;100.00;96706.49;108658;1280;23703;-84
2024/03/22 09:02:15;;;;;;;;;;;;;;;8.79;100.00;96708.43;108491;1272;124650;-84
2024/03/22 09:04:41;;;;;;;;;;;;;;;8.76;100.00;96713.52;108739;1272;22513;-84
2024/03/22 09:07:07;;;;;;;;;;;;;;;8.73;100.00;96710.56;108712;1279;22624;-85
2024/03/22 09:09:33;;;;;;;;;;;;;;;8.70;100.00;96713.26;108517;1269;124722;-84
2024/03/22 09:12:00;;;;;;;;;;;;;;;8.69;100.00;96708.23;108621;1275;22604;-84
2024/03/22 09:14:26;;;;;;;;;;;;;;;8.68;100.00;96710.98;108521;1280;125184;-84
2024/03/22 09:16:53;;;;;;;;;;;;;;;8.64;100.00;96715.14;108670;1280;22506;-85
2024/03/22 09:19:19;;;;;;;;;;;;;;;8.64;100.00;96713.48;108661;1280;22534;-84
2024/03/22 09:21:46;;;;;;;;;;;;;;;8.64;100.00;96717.95;108653;1280;25317;-84
2024/03/22 09:24:12;;;;;;;;;;;;;;;8.62;100.00;96716.61;108716;1280;25287;-84
2024/03/22 09:26:38;;;;;;;;;;;;;;;8.61;100.00;96715.34;108617;1275;124563;-84
2024/03/22 09:29:05;;;;;;;;;;;;;;;8.59;100.00;96718.58;108646;1280;22468;-84
2024/03/22 09:31:33;;;;;;;;;;;;;;;8.60;100.00;96719.19;108508;1274;124745;-84
2024/03/22 09:33:59;;;;;;;;;;;;;;;8.61;100.00;96722.34;108666;1273;23310;-84
2024/03/22 09:36:25;;;;;;;;;;;;;;;8.63;100.00;96722.23;108655;1275;22460;-84
2024/03/22 09:38:52;;;;;;;;;;;;;;;8.62;100.00;96721.58;108556;1280;124747;-85
2024/03/22 09:41:23;;;;;;;;;;;;;;;8.63;100.00;96718.02;108205;1279;621571;-84
2024/03/22 09:43:54;;;;;;;;;;;;;;;8.64;100.00;96718.83;110030;1279;124884;-85
2024/03/22 09:46:21;;;;;;;;;;;;;;;8.64;100.00;96722.65;110101;1279;22375;-85
2024/03/22 09:48:50;;;;;;;;;;;;;;;8.61;100.00;96720.33;110059;1272;22379;-85
2024/03/22 09:51:16;;;;;;;;;;;;;;;8.58;100.00;96716.45;109975;1273;124517;-85
2024/03/22 09:53:46;;;;;;;;;;;;;;;8.58;100.00;96713.56;110071;1272;23146;-85
2024/03/22 09:56:13;;;;;;;;;;;;;;;8.58;100.00;96711.11;110024;1276;124986;-85
2024/03/22 09:58:43;;;;;;;;;;;;;;;8.60;100.00;96710.09;110057;1273;22376;-85
2024/03/22 10:01:09;;;;;;;;;;;;;;;8.60;100.00;96708.54;110059;1268;22397;-85
2024/03/22 10:03:36;;;;;;;;;;;;;;;8.59;100.00;96707.05;109900;1275;124354;-85
2024/03/22 10:06:03;;;;;;;;;;;;;;;8.58;100.00;96709.80;110068;1275;22371;-85
2024/03/22 10:08:29;;;;;;;;;;;;;;;8.56;100.00;96703.76;109968;1275;124940;-85
2024/03/22 10:10:56;;;;;;;;;;;;;;;8.54;100.00;96703.34;110139;1275;23148;-85
2024/03/22 10:13:22;;;;;;;;;;;;;;;8.50;100.00;96701.72;109987;1272;124648;-85
2024/03/22 10:15:48;;;;;;;;;;;;;;;8.49;100.00;96701.42;109791;1280;25883;-84
2024/03/22 10:18:15;;;;;;;;;;;;;;;8.47;100.00;96703.54;108653;1275;22626;-84
2024/03/22 10:20:41;;;;;;;;;;;;;;;8.48;100.00;96699.14;108530;1280;125394;-84
2024/03/22 10:23:08;;;;;;;;;;;;;;;8.49;100.00;96690.85;108625;1280;23198;-84
2024/03/22 10:25:53;;;;;;;;;;;;;;;8.53;100.00;96687.58;108605;1280;124797;-84
2024/03/22 10:28:46;;;;;;;;;;;;;;;8.54;100.00;96686.57;108576;1278;23919;-85
2024/03/22 10:31:13;;;;;;;;;;;;;;;8.55;100.00;96685.27;108635;1276;22584;-84
2024/03/22 10:33:42;;;;;;;;;;;;;;;8.57;100.00;96682.59;108515;1277;124528;-84
2024/03/22 10:36:09;;;;;;;;;;;;;;;8.61;100.00;96680.61;108680;1278;22519;-84
2024/03/22 10:38:38;;;;;;;;;;;;;;;8.65;100.00;96679.84;108665;1279;124533;-84
2024/03/22 10:41:04;;;;;;;;;;;;;;;8.71;100.00;96675.58;108682;1280;23299;-84
2024/03/22 10:43:31;;;;;;;;;;;;;;;8.72;100.00;96675.23;108661;1273;124761;-85
2024/03/22 10:46:00;;;;;;;;;;;;;;;8.73;100.00;96676.72;108612;1279;23222;-84
2024/03/22 10:48:28;;;;;;;;;;;;;;;8.76;100.00;96677.48;108828;1275;22631;-83
2024/03/22 10:50:54;;;;;;;;;;;;;;;8.76;100.00;96675.09;108651;1273;124588;-84
2024/03/22 10:53:22;;;;;;;;;;;;;;;8.73;100.00;96671.86;108677;1280;23183;-84
2024/03/22 10:55:49;;;;;;;;;;;;;;;8.71;100.00;96665.33;108624;1265;124707;-84
2024/03/22 10:58:21;;;;;;;;;;;;;;;8.71;100.00;96663.61;108624;1280;22564;-84
2024/03/22 11:00:47;;;;;;;;;;;;;;;8.73;100.00;96660.48;108625;1280;23696;-84
2024/03/22 11:03:13;;;;;;;;;;;;;;;8.73;100.00;96653.02;108616;1280;125009;-85
2024/03/22 11:05:46;;;;;;;;;;;;;;;8.76;100.00;96650.18;108703;1276;26025;-84
2024/03/22 11:08:13;;;;;;;;;;;;;;;8.78;100.00;96647.50;108627;1280;124589;-84
2024/03/22 11:10:40;;;;;;;;;;;;;;;8.84;100.00;96643.75;108637;1280;25285;-84
2024/03/22 11:13:07;;;;;;;;;;;;;;;8.90;100.00;96640.71;108721;1276;23885;-84
2024/03/22 11:15:33;;;;;;;;;;;;;;;8.93;100.00;96637.79;108595;1280;125414;-84
2024/03/22 11:18:00;;;;;;;;;;;;;;;8.97;100.00;96635.31;108783;1272;22535;-84
2024/03/22 11:20:27;;;;;;;;;;;;;;;8.98;100.00;96632.81;108533;1275;124596;-85
2024/03/22 11:22:53;;;;;;;;;;;;;;;8.96;100.00;96628.09;108742;1272;22481;-84
2024/03/22 11:25:20;;;;;;;;;;;;;;;8.99;100.00;96628.34;108718;1277;23258;-84
2024/03/22 11:27:46;;;;;;;;;;;;;;;9.01;100.00;96624.66;108651;1280;22510;-84
2024/03/22 11:30:13;;;;;;;;;;;;;;;9.00;100.00;96617.32;108661;1280;22532;-85
2024/03/22 11:32:45;;;;;;;;;;;;;;;9.02;100.00;96608.27;108610;1280;124964;-84
2024/03/22 11:35:11;;;;;;;;;;;;;;;9.09;100.00;96607.80;108778;1280;24167;-84
2024/03/22 11:37:38;;;;;;;;;;;;;;;9.18;100.00;96599.12;108580;1279;124791;-85
2024/03/22 11:40:05;;;;;;;;;;;;;;;9.29;100.00;96589.41;108673;1275;22554;-84
2024/03/22 11:42:32;;;;;;;;;;;;;;;9.43;100.00;96580.63;108699;1262;24175;-85
2024/03/22 11:44:59;;;;;;;;;;;;;;;9.57;100.00;96574.23;108679;1273;124962;-85
2024/03/22 11:47:25;;;;;;;;;;;;;;;9.70;100.00;96565.57;108749;1273;22515;-84
2024/03/22 11:49:51;;;;;;;;;;;;;;;9.80;100.00;96564.19;108568;1280;125041;-85
2024/03/22 11:52:18;;;;;;;;;;;;;;;9.86;99.88;96558.45;108717;1280;22515;-85
2024/03/22 11:54:50;;;;;;;;;;;;;;;9.92;99.88;96556.80;108682;1271;22665;-84
2024/03/22 11:57:16;;;;;;;;;;;;;;;10.01;99.81;96547.98;109977;1279;125346;-85
2024/03/22 11:59:42;;;;;;;;;;;;;;;10.09;98.64;96546.59;110066;1279;22400;-85
2024/03/22 12:02:09;;;;;;;;;;;;;;;10.11;98.42;96546.39;110026;1279;124975;-85
2024/03/22 12:04:35;;;;;;;;;;;;;;;10.20;98.94;96544.11;110056;1272;22374;-84
2024/03/22 12:07:02;;;;;;;;;;;;;;;10.29;97.74;96541.36;110094;1279;22506;-85
2024/03/22 12:09:28;;;;;;;;;;;;;;;10.42;98.51;96540.23;108988;1275;125338;-85
2024/03/22 12:11:55;;;;;;;;;;;;;;;10.53;97.15;96536.52;108755;1279;22450;-85
2024/03/22 12:14:21;;;;;;;;;;;;;;;10.62;97.48;96532.41;108584;1275;124812;-85
2024/03/22 12:16:47;;;;;;;;;;;;;;;10.74;97.33;96529.75;108753;1272;22517;-85
2024/03/22 12:19:14;;;;;;;;;;;;;;;10.81;96.66;96526.94;108683;1279;22502;-84
2024/03/22 12:21:40;;;;;;;;;;;;;;;10.84;95.38;96522.52;109933;1277;124746;-85
2024/03/22 12:24:06;;;;;;;;;;;;;;;10.84;95.18;96520.25;108964;1276;22499;-84
2024/03/22 12:26:32;;;;;;;;;;;;;;;10.83;94.99;96521.36;108584;1277;124837;-85
2024/03/22 12:28:59;;;;;;;;;;;;;;;10.81;94.25;96518.14;108694;1275;23885;-84
2024/03/22 12:31:25;;;;;;;;;;;;;;;10.78;93.78;96514.70;108521;1280;124971;-85
2024/03/22 12:33:52;;;;;;;;;;;;;;;10.74;93.38;96514.09;108715;1275;22776;-85